Oysterville, Washington
Current Conditions -  °F | °C
As of 2:55 PM on Thursday 23 Oct 2014 (Local Time) from KAST Reporting Station
Few Clouds Few Clouds  
Wind Chill: 59°   Ceiling: Unl
Heat Index: 59°   Visibility: 10mi
Dew Point: 48°   Wind: 12mph
Humidity: 67%   Direction: 210°SSW
Pressure: 29.87"   Gusts: 21mph
Location:  46.55°N, 124.03°W
Report Text: KAST 232155Z AUTO 21010G18KT 10SM FEW036 15/09 A2987 RMK AO2 LTG DSNT N SLP114 T01500089
Loading
Personal Weather Stations






























Interactive Weather Map
Tropical Storm Tracking
New forecast layout! Learn more

10-Day Weather Forecast

Advertisements
Track Severe Weather on mobile